Eureka, WI

9:52 PM CST on March 03, 2015 (GMT -0600)
City of Omro | Change Station
CLOSE
Current Station
Personal Weather Station
Location: Omro, WI
Elevation: 764 ft
Nearby Weather Stations

Elev 764 ft 44.03 °N, 88.75 °W | Updated 13 seconds ago

Overcast
Overcast
27.7 °F
Feels Like 18 °F
N
11.2
Wind Variable Wind from West
Gusts 11.6 mph

Today
High -- | Low -- °F
--% Chance of Precip.
Yesterday
High -- | Low -- °F
Precip. -- in
6:29 AM 5:46 PM
Waxing Gibbous, 98% visible
Pressure 29.80 in
Visibility 9.0 miles
Clouds Overcast 3100 ft
Windchill 18 °F
Dew Point 22 °F
Humidity 79%
Rainfall 0.00 in
Snow Depth Not available.
UV 0 out of 12
Pollen .40 out of 12
Air Quality Not available.
Flu Activity Not available.
METAR KOSH 040253Z 28008KT 9SM OVC031 M02/M07 A2975 RMK AO2 SLP091 T10171067 53032

More Conditions Fewer Conditions

Pressure 29.80 in
Visibility 9.0 miles
Clouds Overcast 3100 ft
Windchill 18 °F
Dew Point 22 °F
Humidity 79%
Rainfall 0.00 in
Snow Depth Not available.
UV 0 out of 12
Pollen .40 out of 12
Air Quality Not available.
Flu Activity Not available.
METAR KOSH 040253Z 28008KT 9SM OVC031 M02/M07 A2975 RMK AO2 SLP091 T10171067 53032

More Conditions Fewer Conditions

10-Day Weather Forecast

Almanac

Astronomy

Mar. 03, 2015 Rise Set
Actual Time
Civil Twilight
Nautical Twilight
Astronomical Twilight
Moon
Length of Visible Light
Length of Day
Tomorrow will be .
, % of the Moon is Illuminated

Today's Extremes

State Highs State Lows

Community

WunderPhotos

Upload Photos

1,802,379 photos uploaded!

WunderBlogs® & News

Nearby

Air Quality

  Air Quality AQ Index Pollutant
Not available.

Snow Depth

Station Depth Elevation

Earthquake Activity

City Distance Mag. Time & Date
Minimum magnitude displayed is 2.5.

Coastal Water Temperatures

Place Temperature

Nearby Weather Stations